Naples, FL

7:12 PM EDT on October 22, 2014 (GMT -0400)
KFLNAPLE31 | Change Station
CLOSE
Current Station
Personal Weather Station
Location: Naples, FL
Elevation: 20 ft
Nearby Weather Stations

Elev 20 ft 26.16 °N, 81.78 °W | Updated 22 seconds ago

Clear
Clear
80.5 °F
Feels Like 85 °F
N
3.0
Wind Variable Wind from SE
Gusts 4.0 mph

Today
High -- | Low -- °F
--% Chance of Precip.
Yesterday
High -- | Low -- °F
Precip. -- in
7:29 AM 6:52 PM
Waning Crescent, 1% visible
Pressure 29.91 in
Visibility 10.0 miles
Clouds Clear
Heat Index 85 °F
Dew Point 73 °F
Humidity 78%
Rainfall 0.00 in
Snow Depth Not available.
UV 0 out of 12
Pollen 1.70 out of 12
Air Quality Not available.
Flu Activity Local Activity
METAR KAPF 222253Z 15003KT 10SM CLR 27/21 A2991 RMK AO2 SLP128 T02670211

More Conditions Fewer Conditions

Pressure 29.91 in
Visibility 10.0 miles
Clouds Clear
Heat Index 85 °F
Dew Point 73 °F
Humidity 78%
Rainfall 0.00 in
Snow Depth Not available.
UV 0 out of 12
Pollen 1.70 out of 12
Air Quality Not available.
Flu Activity Local Activity
METAR KAPF 222253Z 15003KT 10SM CLR 27/21 A2991 RMK AO2 SLP128 T02670211

More Conditions Fewer Conditions

Nowcast | as of 5:53 PM EDT on October 22, 2014

Areas of light to moderate rain will continue over southern portions of the peninsula this evening, mainly across Miami-Dade and Mainland Monroe counties as well as southern portions of Collier and Broward counties. Across Palm Beach and Hendry counties, only isolated showers are expected this evening.

×

10-Day Weather Forecast

Almanac

Astronomy

Oct. 22, 2014 Rise Set
Actual Time 7:29 AM EDT 6:52 PM EDT
Civil Twilight 7:06 AM EDT 7:16 PM EDT
Nautical Twilight 6:39 AM EDT 7:43 PM EDT
Astronomical Twilight 6:12 AM EDT 8:10 PM EDT
Moon 6:17 AM EDT 6:13 PM EDT
Length of Visible Light 12h 09m
Length of Day
11h 22m
Tomorrow will be 1m 25s shorter.
Waning Crescent, 1% of the Moon is Illuminated
Today
Waning Crescent
Oct 23
New
Oct 30
First Quarter
Nov 6
Full
Nov 14
Last Quarter

Today's Extremes

State Highs State Lows

Community

WunderPhotos

Upload Photos

1,764,075 photos uploaded!

WunderBlogs® & News

Nearby

Snow Depth

Station Depth Elevation
No new snow has been reported.

Earthquake Activity

City Distance Mag. Time & Date
No recent earthquake activity has been reported nearby.
Minimum magnitude displayed is 2.5.

Coastal Water Temperatures

Place Temperature
Naples, FL 82.9 °F

Nearby Weather Stations